sensor_id;sensor_type;location;lat;lon;timestamp;pressure;altitude;pressure_sealevel;temperature;humidity
29903;BME280;30288;50.514;9.678;2023-03-13T00:01:16;97972.91;;;6.90;100.00
29903;BME280;30288;50.514;9.678;2023-03-13T00:03:23;97975.16;;;6.99;100.00
29903;BME280;30288;50.514;9.678;2023-03-13T00:05:30;97973.31;;;7.08;100.00
29903;BME280;30288;50.514;9.678;2023-03-13T00:07:39;97963.09;;;7.14;100.00
29903;BME280;30288;50.514;9.678;2023-03-13T00:09:43;97968.88;;;7.17;100.00
29903;BME280;30288;50.514;9.678;2023-03-13T00:11:49;97960.97;;;7.31;100.00
29903;BME280;30288;50.514;9.678;2023-03-13T00:13:54;97961.75;;;7.33;100.00
29903;BME280;30288;50.514;9.678;2023-03-13T00:16:00;97959.09;;;7.39;100.00
29903;BME280;30288;50.514;9.678;2023-03-13T00:18:06;97955.72;;;7.40;100.00
29903;BME280;30288;50.514;9.678;2023-03-13T00:20:12;97946.25;;;7.50;100.00
29903;BME280;30288;50.514;9.678;2023-03-13T00:22:21;97947.72;;;7.57;100.00
29903;BME280;30288;50.514;9.678;2023-03-13T00:24:26;97951.84;;;7.59;100.00
29903;BME280;30288;50.514;9.678;2023-03-13T00:26:31;97953.47;;;7.60;100.00
29903;BME280;30288;50.514;9.678;2023-03-13T00:28:38;97953.91;;;7.74;100.00
29903;BME280;30288;50.514;9.678;2023-03-13T00:30:46;97946.19;;;7.80;100.00
29903;BME280;30288;50.514;9.678;2023-03-13T00:32:51;97941.81;;;7.87;100.00
29903;BME280;30288;50.514;9.678;2023-03-13T00:34:57;97939.34;;;7.85;100.00
29903;BME280;30288;50.514;9.678;2023-03-13T00:37:02;97938.38;;;7.89;100.00
29903;BME280;30288;50.514;9.678;2023-03-13T00:39:09;97939.16;;;7.93;100.00
29903;BME280;30288;50.514;9.678;2023-03-13T00:41:17;97932.16;;;8.03;100.00
29903;BME280;30288;50.514;9.678;2023-03-13T00:43:23;97926.22;;;8.05;100.00
29903;BME280;30288;50.514;9.678;2023-03-13T00:45:28;97921.22;;;8.05;100.00
29903;BME280;30288;50.514;9.678;2023-03-13T00:47:33;97915.16;;;8.12;100.00
29903;BME280;30288;50.514;9.678;2023-03-13T00:49:38;97911.72;;;8.15;100.00
29903;BME280;30288;50.514;9.678;2023-03-13T00:51:43;97915.09;;;8.14;100.00
29903;BME280;30288;50.514;9.678;2023-03-13T00:53:48;97920.03;;;8.17;100.00
29903;BME280;30288;50.514;9.678;2023-03-13T00:55:59;97927.41;;;8.21;100.00
29903;BME280;30288;50.514;9.678;2023-03-13T00:58:04;97923.28;;;8.19;100.00
29903;BME280;30288;50.514;9.678;2023-03-13T01:00:11;97926.66;;;8.18;100.00
29903;BME280;30288;50.514;9.678;2023-03-13T01:02:17;97921.75;;;8.15;100.00
29903;BME280;30288;50.514;9.678;2023-03-13T01:04:22;97921.91;;;8.09;100.00
29903;BME280;30288;50.514;9.678;2023-03-13T01:06:30;97921.75;;;8.15;100.00
29903;BME280;30288;50.514;9.678;2023-03-13T01:08:36;97920.03;;;8.17;100.00
29903;BME280;30288;50.514;9.678;2023-03-13T01:10:41;97908.16;;;8.22;100.00
29903;BME280;30288;50.514;9.678;2023-03-13T01:12:49;97907.38;;;8.20;100.00
29903;BME280;30288;50.514;9.678;2023-03-13T01:14:54;97898.19;;;8.19;100.00
29903;BME280;30288;50.514;9.678;2023-03-13T01:16:59;97899.66;;;8.26;100.00
29903;BME280;30288;50.514;9.678;2023-03-13T01:19:07;97893.09;;;8.22;100.00
29903;BME280;30288;50.514;9.678;2023-03-13T01:21:16;97889.63;;;8.26;100.00
29903;BME280;30288;50.514;9.678;2023-03-13T01:23:22;97879.59;;;8.26;100.00
29903;BME280;30288;50.514;9.678;2023-03-13T01:25:27;97867.91;;;8.25;100.00
29903;BME280;30288;50.514;9.678;2023-03-13T01:27:35;97860.28;;;8.28;100.00
29903;BME280;30288;50.514;9.678;2023-03-13T01:29:43;97864.28;;;8.35;100.00
29903;BME280;30288;50.514;9.678;2023-03-13T01:31:48;97851.94;;;8.27;100.00
29903;BME280;30288;50.514;9.678;2023-03-13T01:33:55;97839.06;;;8.38;100.00
29903;BME280;30288;50.514;9.678;2023-03-13T01:36:01;97845.53;;;8.45;100.00
29903;BME280;30288;50.514;9.678;2023-03-13T01:38:07;97841.94;;;8.52;100.00
29903;BME280;30288;50.514;9.678;2023-03-13T01:40:12;97836.59;;;8.61;100.00
29903;BME280;30288;50.514;9.678;2023-03-13T01:42:17;97832.25;;;8.66;100.00
29903;BME280;30288;50.514;9.678;2023-03-13T01:44:24;97829.66;;;8.69;100.00
29903;BME280;30288;50.514;9.678;2023-03-13T01:46:33;97813.75;;;8.69;100.00
29903;BME280;30288;50.514;9.678;2023-03-13T01:48:49;97820.47;;;8.68;100.00
29903;BME280;30288;50.514;9.678;2023-03-13T01:51:01;97805.56;;;8.64;100.00
29903;BME280;30288;50.514;9.678;2023-03-13T01:53:06;97801.38;;;8.64;100.00
29903;BME280;30288;50.514;9.678;2023-03-13T01:55:14;97789.53;;;8.68;100.00
29903;BME280;30288;50.514;9.678;2023-03-13T01:57:27;97793.94;;;8.85;100.00
29903;BME280;30288;50.514;9.678;2023-03-13T01:59:38;97790.56;;;8.86;100.00
29903;BME280;30288;50.514;9.678;2023-03-13T02:01:49;97788.09;;;8.84;100.00
29903;BME280;30288;50.514;9.678;2023-03-13T02:03:56;97786.84;;;8.96;100.00
29903;BME280;30288;50.514;9.678;2023-03-13T02:06:03;97784.28;;;8.97;100.00
29903;BME280;30288;50.514;9.678;2023-03-13T02:08:14;97772.47;;;8.99;100.00
29903;BME280;30288;50.514;9.678;2023-03-13T02:10:22;97765.00;;;8.98;100.00
29903;BME280;30288;50.514;9.678;2023-03-13T02:12:33;97768.16;;;9.03;100.00
29903;BME280;30288;50.514;9.678;2023-03-13T02:14:43;97760.09;;;8.95;100.00
29903;BME280;30288;50.514;9.678;2023-03-13T02:16:53;97764.75;;;9.04;100.00
29903;BME280;30288;50.514;9.678;2023-03-13T02:19:00;97756.50;;;9.02;100.00
29903;BME280;30288;50.514;9.678;2023-03-13T02:21:28;97748.41;;;8.94;100.00
29903;BME280;30288;50.514;9.678;2023-03-13T02:23:43;97761.84;;;8.93;100.00
29903;BME280;30288;50.514;9.678;2023-03-13T02:25:55;97755.06;;;8.95;100.00
29903;BME280;30288;50.514;9.678;2023-03-13T02:28:11;97751.69;;;8.96;100.00
29903;BME280;30288;50.514;9.678;2023-03-13T02:30:17;97750.69;;;9.00;100.00
29903;BME280;30288;50.514;9.678;2023-03-13T02:32:23;97741.69;;;8.94;100.00
29903;BME280;30288;50.514;9.678;2023-03-13T02:34:33;97742.25;;;9.02;100.00
29903;BME280;30288;50.514;9.678;2023-03-13T02:36:39;97749.69;;;9.04;100.00
29903;BME280;30288;50.514;9.678;2023-03-13T02:38:52;97745.50;;;9.04;100.00
29903;BME280;30288;50.514;9.678;2023-03-13T02:41:04;97739.09;;;8.97;100.00
29903;BME280;30288;50.514;9.678;2023-03-13T02:43:14;97744.94;;;8.98;100.00
29903;BME280;30288;50.514;9.678;2023-03-13T02:45:21;97743.50;;;9.12;100.00
29903;BME280;30288;50.514;9.678;2023-03-13T02:47:27;97742.00;;;9.08;100.00
29903;BME280;30288;50.514;9.678;2023-03-13T02:49:32;97737.44;;;9.18;100.00
29903;BME280;30288;50.514;9.678;2023-03-13T02:51:40;97743.97;;;9.22;100.00
29903;BME280;30288;50.514;9.678;2023-03-13T02:53:50;97740.50;;;9.26;100.00
29903;BME280;30288;50.514;9.678;2023-03-13T02:55:57;97735.56;;;9.23;100.00
29903;BME280;30288;50.514;9.678;2023-03-13T02:58:06;97723.53;;;9.31;100.00
29903;BME280;30288;50.514;9.678;2023-03-13T03:00:13;97725.94;;;9.34;100.00
29903;BME280;30288;50.514;9.678;2023-03-13T03:02:19;97716.88;;;9.30;100.00
29903;BME280;30288;50.514;9.678;2023-03-13T03:04:25;97709.16;;;9.35;100.00
29903;BME280;30288;50.514;9.678;2023-03-13T03:06:30;97706.06;;;9.28;100.00
29903;BME280;30288;50.514;9.678;2023-03-13T03:08:38;97700.94;;;9.31;100.00
29903;BME280;30288;50.514;9.678;2023-03-13T03:10:46;97694.38;;;9.27;100.00
29903;BME280;30288;50.514;9.678;2023-03-13T03:12:51;97697.47;;;9.34;100.00
29903;BME280;30288;50.514;9.678;2023-03-13T03:14:59;97679.66;;;9.40;100.00
29903;BME280;30288;50.514;9.678;2023-03-13T03:17:09;97693.25;;;9.34;100.00
29903;BME280;30288;50.514;9.678;2023-03-13T03:19:14;97688.47;;;9.28;100.00
29903;BME280;30288;50.514;9.678;2023-03-13T03:21:19;97688.47;;;9.28;100.00
29903;BME280;30288;50.514;9.678;2023-03-13T03:23:26;97697.16;;;9.21;100.00
29903;BME280;30288;50.514;9.678;2023-03-13T03:25:31;97693.88;;;9.19;100.00
29903;BME280;30288;50.514;9.678;2023-03-13T03:27:36;97687.09;;;9.21;100.00
29903;BME280;30288;50.514;9.678;2023-03-13T03:29:42;97682.16;;;9.18;100.00
29903;BME280;30288;50.514;9.678;2023-03-13T03:31:50;97677.16;;;9.18;100.00
29903;BME280;30288;50.514;9.678;2023-03-13T03:33:56;97672.66;;;9.04;100.00
29903;BME280;30288;50.514;9.678;2023-03-13T03:36:05;97673.63;;;9.02;100.00
29903;BME280;30288;50.514;9.678;2023-03-13T03:38:11;97658.91;;;8.93;100.00
29903;BME280;30288;50.514;9.678;2023-03-13T03:40:17;97656.63;;;8.87;100.00
29903;BME280;30288;50.514;9.678;2023-03-13T03:42:23;97654.97;;;8.86;100.00
29903;BME280;30288;50.514;9.678;2023-03-13T03:44:29;97653.47;;;8.82;100.00
29903;BME280;30288;50.514;9.678;2023-03-13T03:46:34;97646.06;;;8.78;100.00
29903;BME280;30288;50.514;9.678;2023-03-13T03:48:43;97642.97;;;8.72;100.00
29903;BME280;30288;50.514;9.678;2023-03-13T03:50:48;97633.09;;;8.67;100.00
29903;BME280;30288;50.514;9.678;2023-03-13T03:52:54;97626.44;;;8.66;100.00
29903;BME280;30288;50.514;9.678;2023-03-13T03:55:00;97625.78;;;8.61;100.00
29903;BME280;30288;50.514;9.678;2023-03-13T03:57:06;97617.53;;;8.59;100.00
29903;BME280;30288;50.514;9.678;2023-03-13T03:59:12;97621.03;;;8.55;100.00
29903;BME280;30288;50.514;9.678;2023-03-13T04:01:30;97611.56;;;8.62;100.00
29903;BME280;30288;50.514;9.678;2023-03-13T04:03:37;97612.59;;;8.56;100.00
29903;BME280;30288;50.514;9.678;2023-03-13T04:05:45;97608.31;;;8.60;100.00
29903;BME280;30288;50.514;9.678;2023-03-13T04:07:51;97597.66;;;8.53;100.00
29903;BME280;30288;50.514;9.678;2023-03-13T04:09:56;97604.31;;;8.54;100.00
29903;BME280;30288;50.514;9.678;2023-03-13T04:12:09;97606.00;;;8.54;100.00
29903;BME280;30288;50.514;9.678;2023-03-13T04:14:17;97599.31;;;8.54;100.00
29903;BME280;30288;50.514;9.678;2023-03-13T04:16:22;97599.31;;;8.54;100.00
29903;BME280;30288;50.514;9.678;2023-03-13T04:18:29;97597.66;;;8.53;100.00
29903;BME280;30288;50.514;9.678;2023-03-13T04:20:35;97591.00;;;8.52;100.00
29903;BME280;30288;50.514;9.678;2023-03-13T04:22:43;97590.13;;;8.53;100.00
29903;BME280;30288;50.514;9.678;2023-03-13T04:24:50;97592.66;;;8.53;100.00
29903;BME280;30288;50.514;9.678;2023-03-13T04:26:57;97588.53;;;8.51;100.00
29903;BME280;30288;50.514;9.678;2023-03-13T04:29:04;97595.28;;;8.50;100.00
29903;BME280;30288;50.514;9.678;2023-03-13T04:31:28;97592.00;;;8.48;100.00
29903;BME280;30288;50.514;9.678;2023-03-13T04:33:33;97586.00;;;8.52;100.00
29903;BME280;30288;50.514;9.678;2023-03-13T04:35:54;97577.81;;;8.47;100.00
29903;BME280;30288;50.514;9.678;2023-03-13T04:38:20;97586.03;;;8.51;100.00
29903;BME280;30288;50.514;9.678;2023-03-13T04:40:40;97572.81;;;8.47;100.00
29903;BME280;30288;50.514;9.678;2023-03-13T04:42:56;97574.44;;;8.48;100.00
29903;BME280;30288;50.514;9.678;2023-03-13T04:45:25;97560.25;;;8.47;100.00
29903;BME280;30288;50.514;9.678;2023-03-13T04:47:53;97559.50;;;8.45;100.00
29903;BME280;30288;50.514;9.678;2023-03-13T04:50:01;97560.25;;;8.47;100.00
29903;BME280;30288;50.514;9.678;2023-03-13T04:52:35;97551.81;;;8.50;100.00
29903;BME280;30288;50.514;9.678;2023-03-13T04:55:09;97540.81;;;8.52;100.00
29903;BME280;30288;50.514;9.678;2023-03-13T04:57:17;97539.19;;;8.51;100.00
29903;BME280;30288;50.514;9.678;2023-03-13T04:59:37;97529.97;;;8.52;100.00
29903;BME280;30288;50.514;9.678;2023-03-13T05:01:43;97529.16;;;8.51;100.00
29903;BME280;30288;50.514;9.678;2023-03-13T05:04:09;97532.56;;;8.50;100.00
29903;BME280;30288;50.514;9.678;2023-03-13T05:06:31;97539.19;;;8.51;100.00
29903;BME280;30288;50.514;9.678;2023-03-13T05:08:48;97540.81;;;8.52;100.00
29903;BME280;30288;50.514;9.678;2023-03-13T05:11:05;97529.09;;;8.53;100.00
29903;BME280;30288;50.514;9.678;2023-03-13T05:13:28;97533.88;;;8.59;100.00
29903;BME280;30288;50.514;9.678;2023-03-13T05:15:56;97538.94;;;8.57;100.00
29903;BME280;30288;50.514;9.678;2023-03-13T05:18:11;97522.22;;;8.58;100.00
29903;BME280;30288;50.514;9.678;2023-03-13T05:20:35;97513.88;;;8.57;100.00
29903;BME280;30288;50.514;9.678;2023-03-13T05:22:43;97505.47;;;8.58;100.00
29903;BME280;30288;50.514;9.678;2023-03-13T05:24:48;97522.16;;;8.59;100.00
29903;BME280;30288;50.514;9.678;2023-03-13T05:27:28;97518.50;;;8.66;100.00
29903;BME280;30288;50.514;9.678;2023-03-13T05:29:45;97515.25;;;8.64;100.00
29903;BME280;30288;50.514;9.678;2023-03-13T05:32:10;97508.84;;;8.57;100.00
29903;BME280;30288;50.514;9.678;2023-03-13T05:34:47;97501.00;;;8.65;100.00
29903;BME280;30288;50.514;9.678;2023-03-13T05:36:58;97499.19;;;8.68;100.00
29903;BME280;30288;50.514;9.678;2023-03-13T05:39:19;97500.13;;;8.66;100.00
29903;BME280;30288;50.514;9.678;2023-03-13T05:41:46;97479.84;;;8.70;100.00
29903;BME280;30288;50.514;9.678;2023-03-13T05:44:04;97478.25;;;8.69;100.00
29903;BME280;30288;50.514;9.678;2023-03-13T05:46:26;97481.38;;;8.74;100.00
29903;BME280;30288;50.514;9.678;2023-03-13T05:48:55;97482.91;;;8.78;100.00
29903;BME280;30288;50.514;9.678;2023-03-13T05:51:20;97473.22;;;8.90;100.00
29903;BME280;30288;50.514;9.678;2023-03-13T05:53:33;97475.47;;;8.96;100.00
29903;BME280;30288;50.514;9.678;2023-03-13T05:56:02;97480.25;;;9.02;100.00
29903;BME280;30288;50.514;9.678;2023-03-13T05:58:24;97487.31;;;9.12;100.00
29903;BME280;30288;50.514;9.678;2023-03-13T06:00:48;97487.19;;;9.15;100.00
29903;BME280;30288;50.514;9.678;2023-03-13T06:03:18;97496.28;;;9.18;100.00
29903;BME280;30288;50.514;9.678;2023-03-13T06:05:25;97487.88;;;9.19;100.00
29903;BME280;30288;50.514;9.678;2023-03-13T06:07:31;97481.97;;;9.20;100.00
29903;BME280;30288;50.514;9.678;2023-03-13T06:09:37;97479.47;;;9.20;100.00
29903;BME280;30288;50.514;9.678;2023-03-13T06:11:43;97476.72;;;9.26;100.00
29903;BME280;30288;50.514;9.678;2023-03-13T06:13:50;97474.09;;;9.28;100.00
29903;BME280;30288;50.514;9.678;2023-03-13T06:16:18;97464.81;;;9.30;100.00
29903;BME280;30288;50.514;9.678;2023-03-13T06:18:24;97463.84;;;9.32;100.00
29903;BME280;30288;50.514;9.678;2023-03-13T06:20:30;97460.47;;;9.33;100.00
29903;BME280;30288;50.514;9.678;2023-03-13T06:22:35;97461.84;;;9.40;100.00
29903;BME280;30288;50.514;9.678;2023-03-13T06:24:40;97470.25;;;9.39;100.00
29903;BME280;30288;50.514;9.678;2023-03-13T06:26:47;97471.75;;;9.43;100.00
29903;BME280;30288;50.514;9.678;2023-03-13T06:28:52;97469.09;;;9.46;100.00
29903;BME280;30288;50.514;9.678;2023-03-13T06:31:00;97452.22;;;9.50;100.00
29903;BME280;30288;50.514;9.678;2023-03-13T06:33:09;97440.31;;;9.53;100.00
29903;BME280;30288;50.514;9.678;2023-03-13T06:35:14;97432.91;;;9.50;100.00
29903;BME280;30288;50.514;9.678;2023-03-13T06:37:19;97422.72;;;9.53;100.00
29903;BME280;30288;50.514;9.678;2023-03-13T06:39:25;97412.53;;;9.56;100.00
29903;BME280;30288;50.514;9.678;2023-03-13T06:41:30;97415.53;;;9.64;100.00
29903;BME280;30288;50.514;9.678;2023-03-13T06:43:36;97421.13;;;9.70;100.00
29903;BME280;30288;50.514;9.678;2023-03-13T06:45:43;97437.03;;;9.70;100.00
29903;BME280;30288;50.514;9.678;2023-03-13T06:47:49;97429.22;;;9.76;100.00
29903;BME280;30288;50.514;9.678;2023-03-13T06:49:56;97433.59;;;9.73;100.00
29903;BME280;30288;50.514;9.678;2023-03-13T06:52:02;97423.25;;;9.79;100.00
29903;BME280;30288;50.514;9.678;2023-03-13T06:54:07;97417.19;;;9.83;100.00
29903;BME280;30288;50.514;9.678;2023-03-13T06:56:12;97422.97;;;9.85;100.00
29903;BME280;30288;50.514;9.678;2023-03-13T06:58:18;97434.50;;;9.89;100.00
29903;BME280;30288;50.514;9.678;2023-03-13T07:00:33;97433.63;;;9.90;100.00
29903;BME280;30288;50.514;9.678;2023-03-13T07:02:40;97442.81;;;9.91;100.00
29903;BME280;30288;50.514;9.678;2023-03-13T07:04:46;97439.09;;;9.98;100.00
29903;BME280;30288;50.514;9.678;2023-03-13T07:06:53;97444.00;;;10.01;100.00
29903;BME280;30288;50.514;9.678;2023-03-13T07:08:59;97450.81;;;9.99;100.00
29903;BME280;30288;50.514;9.678;2023-03-13T07:11:07;97442.91;;;10.06;100.00
29903;BME280;30288;50.514;9.678;2023-03-13T07:13:12;97447.19;;;10.04;100.00
29903;BME280;30288;50.514;9.678;2023-03-13T07:15:17;97459.50;;;10.10;100.00
29903;BME280;30288;50.514;9.678;2023-03-13T07:17:22;97458.69;;;10.10;100.00
29903;BME280;30288;50.514;9.678;2023-03-13T07:19:28;97450.91;;;10.15;100.00
29903;BME280;30288;50.514;9.678;2023-03-13T07:21:33;97449.97;;;10.17;100.00
29903;BME280;30288;50.514;9.678;2023-03-13T07:23:41;97453.25;;;10.19;100.00
29903;BME280;30288;50.514;9.678;2023-03-13T07:25:52;97462.28;;;10.23;100.00
29903;BME280;30288;50.514;9.678;2023-03-13T07:27:58;97446.31;;;10.24;100.00
29903;BME280;30288;50.514;9.678;2023-03-13T07:30:06;97449.25;;;10.32;100.00
29903;BME280;30288;50.514;9.678;2023-03-13T07:32:11;97449.94;;;10.36;100.00
29903;BME280;30288;50.514;9.678;2023-03-13T07:34:16;97454.00;;;10.38;100.00
29903;BME280;30288;50.514;9.678;2023-03-13T07:36:22;97443.06;;;10.39;100.00
29903;BME280;30288;50.514;9.678;2023-03-13T07:38:27;97440.38;;;10.42;100.00
29903;BME280;30288;50.514;9.678;2023-03-13T07:40:35;97452.09;;;10.43;100.00
29903;BME280;30288;50.514;9.678;2023-03-13T07:42:41;97458.00;;;10.42;100.00
29903;BME280;30288;50.514;9.678;2023-03-13T07:44:46;97462.00;;;10.46;100.00
29903;BME280;30288;50.514;9.678;2023-03-13T07:46:51;97452.75;;;10.47;100.00
29903;BME280;30288;50.514;9.678;2023-03-13T07:48:56;97441.88;;;10.46;100.00
29903;BME280;30288;50.514;9.678;2023-03-13T07:51:02;97453.28;;;10.53;100.00
29903;BME280;30288;50.514;9.678;2023-03-13T07:53:07;97453.13;;;10.57;100.00
29903;BME280;30288;50.514;9.678;2023-03-13T07:55:16;97465.56;;;10.60;100.00
29903;BME280;30288;50.514;9.678;2023-03-13T07:57:23;97455.28;;;10.64;100.00
29903;BME280;30288;50.514;9.678;2023-03-13T07:59:28;97455.19;;;10.66;100.00
29903;BME280;30288;50.514;9.678;2023-03-13T08:01:34;97460.69;;;10.74;100.00
29903;BME280;30288;50.514;9.678;2023-03-13T08:03:39;97453.03;;;10.75;100.00
29903;BME280;30288;50.514;9.678;2023-03-13T08:05:45;97457.13;;;10.78;100.00
29903;BME280;30288;50.514;9.678;2023-03-13T08:07:50;97455.50;;;10.77;100.00
29903;BME280;30288;50.514;9.678;2023-03-13T08:09:55;97449.47;;;10.79;100.00
29903;BME280;30288;50.514;9.678;2023-03-13T08:12:00;97451.19;;;10.79;100.00
29903;BME280;30288;50.514;9.678;2023-03-13T08:14:08;97435.19;;;10.80;100.00
29903;BME280;30288;50.514;9.678;2023-03-13T08:16:15;97431.78;;;10.81;100.00
29903;BME280;30288;50.514;9.678;2023-03-13T08:18:21;97427.16;;;10.89;100.00
29903;BME280;30288;50.514;9.678;2023-03-13T08:20:27;97446.13;;;10.96;100.00
29903;BME280;30288;50.514;9.678;2023-03-13T08:22:32;97431.03;;;10.96;100.00
29903;BME280;30288;50.514;9.678;2023-03-13T08:24:38;97427.28;;;11.03;100.00
29903;BME280;30288;50.514;9.678;2023-03-13T08:26:43;97438.53;;;11.13;100.00
29903;BME280;30288;50.514;9.678;2023-03-13T08:28:52;97436.47;;;11.21;100.00
29903;BME280;30288;50.514;9.678;2023-03-13T08:31:07;97430.44;;;11.24;100.00
29903;BME280;30288;50.514;9.678;2023-03-13T08:33:12;97431.00;;;11.29;100.00
29903;BME280;30288;50.514;9.678;2023-03-13T08:35:17;97430.94;;;11.30;100.00
29903;BME280;30288;50.514;9.678;2023-03-13T08:37:22;97441.03;;;11.30;100.00
29903;BME280;30288;50.514;9.678;2023-03-13T08:39:27;97446.66;;;11.35;100.00
29903;BME280;30288;50.514;9.678;2023-03-13T08:41:34;97449.88;;;11.37;100.00
29903;BME280;30288;50.514;9.678;2023-03-13T08:43:42;97446.41;;;11.40;100.00
29903;BME280;30288;50.514;9.678;2023-03-13T08:45:53;97453.16;;;11.39;100.00
29903;BME280;30288;50.514;9.678;2023-03-13T08:48:01;97442.16;;;11.40;100.00
29903;BME280;30288;50.514;9.678;2023-03-13T08:50:07;97445.41;;;11.43;100.00
29903;BME280;30288;50.514;9.678;2023-03-13T08:52:13;97455.50;;;11.43;100.00
29903;BME280;30288;50.514;9.678;2023-03-13T08:54:18;97453.72;;;11.45;100.00
29903;BME280;30288;50.514;9.678;2023-03-13T08:56:25;97451.78;;;11.50;100.00
29903;BME280;30288;50.514;9.678;2023-03-13T08:58:32;97460.88;;;11.52;100.00
29903;BME280;30288;50.514;9.678;2023-03-13T09:00:37;97453.25;;;11.54;100.00
29903;BME280;30288;50.514;9.678;2023-03-13T09:02:42;97453.41;;;11.66;100.00
29903;BME280;30288;50.514;9.678;2023-03-13T09:04:49;97455.41;;;11.77;100.00
29903;BME280;30288;50.514;9.678;2023-03-13T09:06:55;97469.41;;;11.82;100.00
29903;BME280;30288;50.514;9.678;2023-03-13T09:09:00;97474.78;;;11.92;100.00
29903;BME280;30288;50.514;9.678;2023-03-13T09:11:09;97465.78;;;12.02;100.00
29903;BME280;30288;50.514;9.678;2023-03-13T09:13:14;97461.25;;;12.09;100.00
29903;BME280;30288;50.514;9.678;2023-03-13T09:15:19;97467.75;;;12.13;100.00
29903;BME280;30288;50.514;9.678;2023-03-13T09:17:24;97466.41;;;12.21;100.00
29903;BME280;30288;50.514;9.678;2023-03-13T09:19:29;97465.84;;;12.16;100.00
29903;BME280;30288;50.514;9.678;2023-03-13T09:21:37;97478.00;;;12.10;100.00
29903;BME280;30288;50.514;9.678;2023-03-13T09:23:42;97469.44;;;12.12;100.00
29903;BME280;30288;50.514;9.678;2023-03-13T09:25:50;97480.47;;;12.11;100.00
29903;BME280;30288;50.514;9.678;2023-03-13T09:27:55;97474.69;;;12.09;100.00
29903;BME280;30288;50.514;9.678;2023-03-13T09:30:00;97463.69;;;12.10;100.00
29903;BME280;30288;50.514;9.678;2023-03-13T09:32:06;97472.31;;;12.06;100.00
29903;BME280;30288;50.514;9.678;2023-03-13T09:34:11;97467.59;;;12.00;100.00
29903;BME280;30288;50.514;9.678;2023-03-13T09:36:17;97478.66;;;11.98;100.00
29903;BME280;30288;50.514;9.678;2023-03-13T09:38:26;97472.81;;;11.97;100.00
29903;BME280;30288;50.514;9.678;2023-03-13T09:40:37;97465.00;;;12.02;100.00
29903;BME280;30288;50.514;9.678;2023-03-13T09:42:57;97443.50;;;12.10;100.00
29903;BME280;30288;50.514;9.678;2023-03-13T09:45:07;97449.09;;;12.15;100.00
29903;BME280;30288;50.514;9.678;2023-03-13T09:47:22;97447.72;;;12.25;100.00
29903;BME280;30288;50.514;9.678;2023-03-13T09:49:31;97438.56;;;12.39;100.00
29903;BME280;30288;50.514;9.678;2023-03-13T09:51:39;97431.16;;;12.50;100.00
29903;BME280;30288;50.514;9.678;2023-03-13T09:53:51;97434.72;;;12.61;100.00
29903;BME280;30288;50.514;9.678;2023-03-13T09:55:58;97426.16;;;12.64;100.00
29903;BME280;30288;50.514;9.678;2023-03-13T09:58:10;97435.72;;;12.59;100.00
29903;BME280;30288;50.514;9.678;2023-03-13T10:00:23;97436.78;;;12.55;100.00
29903;BME280;30288;50.514;9.678;2023-03-13T10:02:31;97446.50;;;12.47;100.00
29903;BME280;30288;50.514;9.678;2023-03-13T10:04:41;97432.47;;;12.57;100.00
29903;BME280;30288;50.514;9.678;2023-03-13T10:06:48;97432.41;;;12.73;100.00
29903;BME280;30288;50.514;9.678;2023-03-13T10:08:57;97443.53;;;12.98;100.00
29903;BME280;30288;50.514;9.678;2023-03-13T10:11:08;97424.06;;;13.43;100.00
29903;BME280;30288;50.514;9.678;2023-03-13T10:13:24;97418.38;;;13.80;100.00
29903;BME280;30288;50.514;9.678;2023-03-13T10:15:39;97415.88;;;13.66;100.00
29903;BME280;30288;50.514;9.678;2023-03-13T10:17:46;97393.06;;;13.80;100.00
29903;BME280;30288;50.514;9.678;2023-03-13T10:19:57;97391.09;;;13.98;100.00
29903;BME280;30288;50.514;9.678;2023-03-13T10:22:13;97388.84;;;13.93;100.00
29903;BME280;30288;50.514;9.678;2023-03-13T10:24:31;97383.66;;;13.82;100.00
29903;BME280;30288;50.514;9.678;2023-03-13T10:26:37;97388.56;;;13.71;100.00
29903;BME280;30288;50.514;9.678;2023-03-13T10:28:42;97379.41;;;13.56;100.00
29903;BME280;30288;50.514;9.678;2023-03-13T10:30:49;97394.25;;;13.34;100.00
29903;BME280;30288;50.514;9.678;2023-03-13T10:33:17;97390.47;;;13.27;100.00
29903;BME280;30288;50.514;9.678;2023-03-13T10:35:24;97396.25;;;13.29;100.00
29903;BME280;30288;50.514;9.678;2023-03-13T10:37:32;97402.69;;;13.20;100.00
29903;BME280;30288;50.514;9.678;2023-03-13T10:39:46;97397.78;;;13.17;100.00
29903;BME280;30288;50.514;9.678;2023-03-13T10:41:57;97390.47;;;13.12;100.00
29903;BME280;30288;50.514;9.678;2023-03-13T10:44:05;97396.25;;;13.00;100.00
29903;BME280;30288;50.514;9.678;2023-03-13T10:46:24;97408.94;;;12.85;100.00
29903;BME280;30288;50.514;9.678;2023-03-13T10:48:35;97398.41;;;12.78;100.00
29903;BME280;30288;50.514;9.678;2023-03-13T10:50:43;97398.75;;;12.86;100.00
29903;BME280;30288;50.514;9.678;2023-03-13T10:52:50;97395.78;;;12.94;100.00
29903;BME280;30288;50.514;9.678;2023-03-13T10:55:03;97401.28;;;12.86;100.00
29903;BME280;30288;50.514;9.678;2023-03-13T10:57:28;97404.53;;;12.88;100.00
29903;BME280;30288;50.514;9.678;2023-03-13T10:59:39;97392.97;;;12.98;100.00
29903;BME280;30288;50.514;9.678;2023-03-13T11:01:47;97398.03;;;12.98;100.00
29903;BME280;30288;50.514;9.678;2023-03-13T11:03:55;97385.03;;;13.04;100.00
29903;BME280;30288;50.514;9.678;2023-03-13T11:06:02;97399.13;;;13.08;100.00
29903;BME280;30288;50.514;9.678;2023-03-13T11:08:27;97389.75;;;13.25;100.00
29903;BME280;30288;50.514;9.678;2023-03-13T11:10:35;97385.78;;;13.35;100.00
29903;BME280;30288;50.514;9.678;2023-03-13T11:12:44;97379.63;;;13.39;100.00
29903;BME280;30288;50.514;9.678;2023-03-13T11:14:56;97383.88;;;13.65;100.00
29903;BME280;30288;50.514;9.678;2023-03-13T11:17:08;97392.91;;;13.69;100.00
29903;BME280;30288;50.514;9.678;2023-03-13T11:19:36;97406.56;;;13.67;100.00
29903;BME280;30288;50.514;9.678;2023-03-13T11:21:54;97383.16;;;13.77;100.00